Time;durP1;ratioP1;P1;durP2;ratioP2;P2;SDS_P1;SDS_P2;PMS_P1;PMS_P2;Temp;Humidity;BMP_temperature;BMP_pressure;BME280_temperature;BME280_humidity;BME280_pressure;Samples;Min_cycle;Max_cycle;Signal;HPM_P1;HPM_P2
2023/12/25 00:01:36;;;;;;;1.00;0.70;;;20.70;53.20;;;;;;4980139;28;20453;-65
2023/12/25 00:04:02;;;;;;;1.52;0.70;;;20.60;53.20;;;;;;4980404;28;20034;-66
2023/12/25 00:06:28;;;;;;;0.98;0.55;;;20.60;53.20;;;;;;4980187;28;20039;-66
2023/12/25 00:08:54;;;;;;;1.25;0.60;;;20.60;53.20;;;;;;4978859;28;20549;-65
2023/12/25 00:11:19;;;;;;;1.00;0.70;;;20.60;53.30;;;;;;4978748;28;20030;-66
2023/12/25 00:13:47;;;;;;;1.42;0.60;;;20.60;53.30;;;;;;4994755;28;20034;-66
2023/12/25 00:16:12;;;;;;;1.45;0.70;;;20.60;53.30;;;;;;4980419;28;20030;-66
2023/12/25 00:18:38;;;;;;;1.75;0.70;;;20.60;53.30;;;;;;4983042;28;20031;-65
2023/12/25 00:21:04;;;;;;;1.05;0.70;;;20.60;53.30;;;;;;4983123;28;20053;-65
2023/12/25 00:23:29;;;;;;;1.63;0.52;;;20.50;53.30;;;;;;4982907;28;20402;-65
2023/12/25 00:25:55;;;;;;;1.70;0.70;;;20.50;53.30;;;;;;4982846;28;20137;-66
2023/12/25 00:28:21;;;;;;;1.13;0.60;;;20.60;53.30;;;;;;4983636;28;20037;-66
2023/12/25 00:30:46;;;;;;;0.63;0.50;;;20.50;53.30;;;;;;4982104;28;20070;-66
2023/12/25 00:33:12;;;;;;;1.13;0.70;;;20.50;53.30;;;;;;4983403;28;20035;-66
2023/12/25 00:35:37;;;;;;;1.10;0.55;;;20.50;53.30;;;;;;4983983;28;20732;-65
2023/12/25 00:38:04;;;;;;;1.65;0.68;;;20.50;53.30;;;;;;4980001;28;20428;-66
2023/12/25 00:40:29;;;;;;;1.25;0.60;;;20.50;53.30;;;;;;4983153;28;20027;-66
2023/12/25 00:42:55;;;;;;;2.35;0.65;;;20.40;53.30;;;;;;4981864;28;20030;-66
2023/12/25 00:45:20;;;;;;;0.98;0.73;;;20.40;53.30;;;;;;4983992;28;20499;-65
2023/12/25 00:47:46;;;;;;;0.85;0.52;;;20.50;53.40;;;;;;4980378;28;20135;-65
2023/12/25 00:50:12;;;;;;;0.80;0.50;;;20.40;53.30;;;;;;4981576;28;20034;-65
2023/12/25 00:52:37;;;;;;;1.40;0.60;;;20.40;53.40;;;;;;4981174;28;20077;-65
2023/12/25 00:55:03;;;;;;;0.85;0.50;;;20.40;53.40;;;;;;4985424;28;20026;-66
2023/12/25 00:57:29;;;;;;;1.38;0.70;;;20.40;53.40;;;;;;4979722;28;20041;-65
2023/12/25 00:59:55;;;;;;;1.33;0.70;;;20.40;53.40;;;;;;4983204;28;20438;-66
2023/12/25 01:02:21;;;;;;;1.58;0.60;;;20.40;53.40;;;;;;4983116;28;20026;-65
2023/12/25 01:04:46;;;;;;;1.40;0.57;;;20.40;53.40;;;;;;4982923;28;20109;-65
2023/12/25 01:07:12;;;;;;;1.52;0.80;;;20.40;53.40;;;;;;4980230;28;20026;-65
2023/12/25 01:09:37;;;;;;;1.40;0.70;;;20.40;53.50;;;;;;4981681;28;20027;-66
2023/12/25 01:12:03;;;;;;;1.80;0.63;;;20.40;53.50;;;;;;4982901;28;20055;-66
2023/12/25 01:14:29;;;;;;;1.00;0.50;;;20.30;53.40;;;;;;4982898;28;20395;-65
2023/12/25 01:16:54;;;;;;;1.10;0.50;;;20.40;53.50;;;;;;4982686;28;20133;-66
2023/12/25 01:19:20;;;;;;;0.60;0.50;;;20.30;53.40;;;;;;4979280;28;20037;-66
2023/12/25 01:21:46;;;;;;;1.30;0.50;;;20.30;53.50;;;;;;4983359;28;20034;-65
2023/12/25 01:24:11;;;;;;;1.15;0.68;;;20.30;53.50;;;;;;4981944;28;20113;-65
2023/12/25 01:26:37;;;;;;;0.95;0.50;;;20.30;53.50;;;;;;4982149;28;20146;-68
2023/12/25 01:29:02;;;;;;;1.05;0.70;;;20.30;53.50;;;;;;4983144;28;20027;-68
2023/12/25 01:31:28;;;;;;;0.90;0.50;;;20.30;53.50;;;;;;4980352;28;20494;-68
2023/12/25 01:33:54;;;;;;;0.95;0.50;;;20.30;53.50;;;;;;4980816;28;20105;-68
2023/12/25 01:36:19;;;;;;;1.60;0.63;;;20.30;53.50;;;;;;4982821;28;20027;-65
2023/12/25 01:38:45;;;;;;;0.98;0.60;;;20.30;53.50;;;;;;4979957;28;20045;-64
2023/12/25 01:41:10;;;;;;;0.63;0.50;;;20.30;53.60;;;;;;4982262;28;20527;-65
2023/12/25 01:43:36;;;;;;;0.73;0.50;;;20.30;53.60;;;;;;4980038;28;20078;-65
2023/12/25 01:46:01;;;;;;;1.10;0.70;;;20.20;53.60;;;;;;4996277;28;20069;-64
2023/12/25 01:48:28;;;;;;;0.43;0.43;;;20.30;53.60;;;;;;4996014;28;20031;-65
2023/12/25 01:50:56;;;;;;;0.93;0.50;;;20.20;53.60;;;;;;4996585;28;20516;-66
2023/12/25 01:53:22;;;;;;;1.42;0.65;;;20.20;53.60;;;;;;4982156;28;20026;-64
2023/12/25 01:55:48;;;;;;;0.80;0.60;;;20.20;53.60;;;;;;4983060;28;20390;-64
2023/12/25 01:58:14;;;;;;;1.10;0.60;;;20.20;53.60;;;;;;4981677;28;20034;-65
2023/12/25 02:00:39;;;;;;;0.93;0.50;;;20.30;53.70;;;;;;4982624;28;20054;-65
2023/12/25 02:03:05;;;;;;;1.92;0.60;;;20.20;53.60;;;;;;4980038;28;20034;-65
2023/12/25 02:05:31;;;;;;;0.82;0.60;;;20.20;53.60;;;;;;4982157;28;20502;-64
2023/12/25 02:07:56;;;;;;;0.57;0.50;;;20.20;53.70;;;;;;4981097;28;20030;-65
2023/12/25 02:10:30;;;;;;;0.70;0.57;;;20.20;53.60;;;;;;4983294;28;20120;-64
2023/12/25 02:12:56;;;;;;;1.45;0.70;;;20.20;53.60;;;;;;4981133;28;20041;-65
2023/12/25 02:15:22;;;;;;;0.80;0.50;;;20.20;53.60;;;;;;4981617;28;20027;-64
2023/12/25 02:17:50;;;;;;;1.27;0.60;;;20.20;53.70;;;;;;4997062;28;20030;-65
2023/12/25 02:20:16;;;;;;;0.75;0.50;;;20.20;53.60;;;;;;4981909;28;20026;-64
2023/12/25 02:22:42;;;;;;;0.55;0.40;;;20.20;53.70;;;;;;4980754;28;20513;-66
2023/12/25 02:25:13;;;;;;;0.63;0.40;;;20.20;53.60;;;;;;4977236;28;20066;-64
2023/12/25 02:27:39;;;;;;;0.43;0.40;;;20.20;53.60;;;;;;4980792;28;20039;-65
2023/12/25 02:30:06;;;;;;;0.82;0.60;;;20.20;53.70;;;;;;4980061;28;20038;-64
2023/12/25 02:32:31;;;;;;;0.93;0.50;;;20.20;53.60;;;;;;4979428;28;20088;-65
2023/12/25 02:34:57;;;;;;;1.30;0.50;;;20.20;53.60;;;;;;4980268;28;20426;-63
2023/12/25 02:37:23;;;;;;;0.85;0.40;;;20.10;53.60;;;;;;4979999;28;20079;-64
2023/12/25 02:39:49;;;;;;;2.55;0.68;;;20.10;53.60;;;;;;4980439;28;20018;-64
2023/12/25 02:42:14;;;;;;;0.52;0.40;;;20.20;53.60;;;;;;4977370;28;20054;-65
2023/12/25 02:44:40;;;;;;;0.40;0.40;;;20.20;53.60;;;;;;4982844;28;20099;-64
2023/12/25 02:47:05;;;;;;;0.40;0.40;;;20.10;53.50;;;;;;4980578;28;20106;-68
2023/12/25 02:49:31;;;;;;;0.55;0.45;;;20.10;53.60;;;;;;4979501;28;20095;-68
2023/12/25 02:51:57;;;;;;;0.52;0.50;;;20.10;53.50;;;;;;4980906;28;20360;-68
2023/12/25 02:54:22;;;;;;;1.00;0.63;;;20.10;53.50;;;;;;4980243;28;20109;-68
2023/12/25 02:56:48;;;;;;;0.80;0.65;;;20.10;53.50;;;;;;4980138;28;20026;-68
2023/12/25 02:59:13;;;;;;;0.50;0.50;;;20.10;53.50;;;;;;4979352;28;20061;-68
2023/12/25 03:01:39;;;;;;;0.55;0.50;;;20.10;53.50;;;;;;4980231;28;20051;-68
2023/12/25 03:04:04;;;;;;;0.40;0.40;;;20.10;53.50;;;;;;4979743;28;20077;-67
2023/12/25 03:06:30;;;;;;;0.43;0.40;;;20.10;53.50;;;;;;4984123;28;20057;-68
2023/12/25 03:08:56;;;;;;;0.60;0.40;;;20.00;53.40;;;;;;4984872;28;20251;-68
2023/12/25 03:11:21;;;;;;;0.40;0.40;;;20.10;53.50;;;;;;4980576;28;20526;-68
2023/12/25 03:13:47;;;;;;;0.35;0.35;;;20.10;53.50;;;;;;4979875;28;20501;-68
2023/12/25 03:16:13;;;;;;;0.40;0.40;;;20.00;53.50;;;;;;4977989;28;20023;-68
2023/12/25 03:18:38;;;;;;;0.38;0.32;;;20.00;54.00;;;;;;4980718;28;20093;-68
2023/12/25 03:21:04;;;;;;;0.80;0.50;;;20.00;53.50;;;;;;4978918;28;20483;-68
2023/12/25 03:23:29;;;;;;;0.52;0.43;;;20.00;53.40;;;;;;4979850;28;20031;-68
2023/12/25 03:25:56;;;;;;;0.88;0.50;;;20.00;53.40;;;;;;4980753;28;20045;-68
2023/12/25 03:28:23;;;;;;;1.13;0.60;;;20.00;53.40;;;;;;4979723;28;20030;-67
2023/12/25 03:30:49;;;;;;;0.77;0.50;;;20.00;53.40;;;;;;4993912;28;20030;-68
2023/12/25 03:33:15;;;;;;;0.60;0.40;;;20.00;53.40;;;;;;4978858;28;20076;-68
2023/12/25 03:35:40;;;;;;;0.98;0.45;;;20.00;53.40;;;;;;4976996;28;20031;-68
2023/12/25 03:38:06;;;;;;;0.55;0.40;;;20.00;53.30;;;;;;4979217;28;20023;-67
2023/12/25 03:40:33;;;;;;;0.85;0.40;;;20.00;53.30;;;;;;4976953;28;20056;-68
2023/12/25 03:42:58;;;;;;;0.30;0.30;;;19.90;53.30;;;;;;4978750;28;20030;-68
2023/12/25 03:45:24;;;;;;;0.57;0.40;;;19.90;53.20;;;;;;4981000;28;20026;-68
2023/12/25 03:47:50;;;;;;;1.45;0.40;;;19.90;53.20;;;;;;4980729;28;20038;-66
2023/12/25 03:50:15;;;;;;;0.82;0.50;;;19.90;53.30;;;;;;4981085;28;20542;-65
2023/12/25 03:52:41;;;;;;;1.10;0.50;;;19.90;53.20;;;;;;4978493;28;20030;-65
2023/12/25 03:55:07;;;;;;;0.40;0.40;;;19.90;53.30;;;;;;4977062;28;20077;-66
2023/12/25 03:57:33;;;;;;;0.50;0.40;;;19.90;53.30;;;;;;4994347;28;20029;-65
2023/12/25 03:59:58;;;;;;;0.57;0.47;;;19.90;53.30;;;;;;4980081;28;20058;-66
2023/12/25 04:02:24;;;;;;;0.95;0.55;;;19.90;53.30;;;;;;4980304;28;20034;-66
2023/12/25 04:04:50;;;;;;;0.30;0.30;;;19.90;53.30;;;;;;4979375;28;20442;-66
2023/12/25 04:07:16;;;;;;;0.50;0.50;;;19.90;53.30;;;;;;4978757;28;20054;-66
2023/12/25 04:09:42;;;;;;;0.50;0.40;;;19.90;53.30;;;;;;4977083;28;20023;-65
2023/12/25 04:12:08;;;;;;;0.55;0.38;;;19.80;53.30;;;;;;4975033;28;20026;-66
2023/12/25 04:14:40;;;;;;;0.40;0.40;;;19.80;53.30;;;;;;4980090;28;20062;-66
2023/12/25 04:17:06;;;;;;;0.55;0.30;;;19.80;53.30;;;;;;4980241;28;20399;-66
2023/12/25 04:19:32;;;;;;;0.45;0.32;;;19.80;53.30;;;;;;4980025;28;20031;-66
2023/12/25 04:21:58;;;;;;;0.30;0.30;;;19.80;53.30;;;;;;4979522;28;20125;-65
2023/12/25 04:24:24;;;;;;;0.50;0.40;;;19.80;53.30;;;;;;4977751;28;20487;-66
2023/12/25 04:26:49;;;;;;;0.40;0.30;;;19.80;53.30;;;;;;4979460;28;20030;-66
2023/12/25 04:29:15;;;;;;;0.68;0.40;;;19.80;53.30;;;;;;4978443;28;20069;-65
2023/12/25 04:31:41;;;;;;;0.88;0.40;;;19.80;53.30;;;;;;4978437;28;20460;-66
2023/12/25 04:34:06;;;;;;;0.52;0.50;;;19.70;53.20;;;;;;4980492;28;20022;-66
2023/12/25 04:36:32;;;;;;;0.57;0.40;;;19.70;53.20;;;;;;4977405;28;20047;-66
2023/12/25 04:39:01;;;;;;;0.63;0.40;;;19.80;53.30;;;;;;4978493;28;20030;-66
2023/12/25 04:41:27;;;;;;;0.40;0.40;;;19.70;53.20;;;;;;4978818;28;20549;-65
2023/12/25 04:43:53;;;;;;;0.30;0.30;;;19.70;53.20;;;;;;4981266;28;20431;-66
2023/12/25 04:46:19;;;;;;;0.80;0.40;;;19.70;53.20;;;;;;4980782;28;20027;-66
2023/12/25 04:48:45;;;;;;;0.35;0.35;;;19.70;53.20;;;;;;4978872;28;20535;-65
2023/12/25 04:51:11;;;;;;;0.57;0.43;;;19.70;53.20;;;;;;4978596;28;20125;-66
2023/12/25 04:53:36;;;;;;;0.30;0.30;;;19.70;53.20;;;;;;4979961;28;20038;-65
2023/12/25 04:56:03;;;;;;;0.45;0.30;;;19.70;53.20;;;;;;4978454;28;20057;-66
2023/12/25 04:58:28;;;;;;;0.32;0.32;;;19.70;53.20;;;;;;4979299;28;20034;-65
2023/12/25 05:00:54;;;;;;;0.52;0.40;;;19.70;53.10;;;;;;4977186;28;20085;-65
2023/12/25 05:03:21;;;;;;;0.60;0.40;;;19.70;53.20;;;;;;4978003;28;20052;-66
2023/12/25 05:05:47;;;;;;;0.75;0.50;;;19.70;53.20;;;;;;4980702;28;20070;-64
2023/12/25 05:08:13;;;;;;;0.50;0.32;;;19.70;53.10;;;;;;4983802;28;20093;-65
2023/12/25 05:10:38;;;;;;;0.40;0.40;;;19.70;53.10;;;;;;4985048;28;20110;-64
2023/12/25 05:13:04;;;;;;;0.30;0.30;;;19.70;53.20;;;;;;4981559;28;20132;-65
2023/12/25 05:15:30;;;;;;;0.43;0.40;;;19.70;53.10;;;;;;4982982;28;20088;-65
2023/12/25 05:17:56;;;;;;;0.50;0.40;;;19.70;53.10;;;;;;4983614;28;20497;-65
2023/12/25 05:20:21;;;;;;;0.40;0.40;;;19.70;53.10;;;;;;4982710;28;20434;-66
2023/12/25 05:22:47;;;;;;;0.68;0.40;;;19.70;53.20;;;;;;4996480;28;20027;-64
2023/12/25 05:25:12;;;;;;;0.35;0.35;;;19.70;53.10;;;;;;4981981;28;20027;-65
2023/12/25 05:27:38;;;;;;;0.40;0.40;;;19.70;53.10;;;;;;4980585;28;20341;-64
2023/12/25 05:30:04;;;;;;;0.80;0.40;;;19.70;53.10;;;;;;4981851;28;20125;-64
2023/12/25 05:32:30;;;;;;;0.60;0.50;;;19.70;53.20;;;;;;4981262;28;20039;-64
2023/12/25 05:34:56;;;;;;;0.57;0.43;;;19.70;53.20;;;;;;4982765;28;20027;-64
2023/12/25 05:37:22;;;;;;;1.48;0.50;;;19.70;53.20;;;;;;4981342;28;20494;-65
2023/12/25 05:39:47;;;;;;;0.30;0.30;;;19.70;53.20;;;;;;4980790;28;20039;-65
2023/12/25 05:42:13;;;;;;;0.32;0.30;;;19.70;53.20;;;;;;4982570;28;20045;-64
2023/12/25 05:44:39;;;;;;;0.38;0.38;;;19.60;53.20;;;;;;4995641;28;20593;-65
2023/12/25 05:47:05;;;;;;;0.40;0.40;;;19.60;53.20;;;;;;4982523;28;20065;-65
2023/12/25 05:49:30;;;;;;;0.63;0.40;;;19.70;53.30;;;;;;4980937;28;20481;-64
2023/12/25 05:51:56;;;;;;;0.55;0.40;;;19.60;53.20;;;;;;4983635;28;20181;-64
2023/12/25 05:54:21;;;;;;;0.55;0.40;;;19.60;53.30;;;;;;4979883;28;20038;-64
2023/12/25 05:56:47;;;;;;;0.50;0.50;;;19.60;53.30;;;;;;4979568;28;20026;-66
2023/12/25 05:59:12;;;;;;;0.60;0.50;;;19.60;53.30;;;;;;4981396;28;20035;-65
2023/12/25 06:01:38;;;;;;;0.38;0.38;;;19.60;53.30;;;;;;4980409;28;20474;-65
2023/12/25 06:04:04;;;;;;;0.65;0.40;;;19.60;53.30;;;;;;4997715;28;20045;-66
2023/12/25 06:06:29;;;;;;;0.30;0.30;;;19.60;53.30;;;;;;4980370;28;20022;-69
2023/12/25 06:08:55;;;;;;;0.20;0.20;;;19.60;53.30;;;;;;4994875;28;20049;-69
2023/12/25 06:11:21;;;;;;;0.35;0.30;;;19.60;53.30;;;;;;4994145;28;20034;-69
2023/12/25 06:13:47;;;;;;;0.30;0.30;;;19.60;53.40;;;;;;4979909;28;20085;-69
2023/12/25 06:16:12;;;;;;;0.57;0.35;;;19.60;53.40;;;;;;4978736;28;20140;-66
2023/12/25 06:18:38;;;;;;;0.45;0.40;;;19.60;53.40;;;;;;4981227;28;20060;-66
2023/12/25 06:21:03;;;;;;;0.38;0.30;;;19.60;53.40;;;;;;4982843;28;20479;-65
2023/12/25 06:23:29;;;;;;;0.40;0.40;;;19.60;53.40;;;;;;4979036;28;20038;-65
2023/12/25 06:25:55;;;;;;;0.40;0.40;;;19.60;53.40;;;;;;4982781;28;20490;-67
2023/12/25 06:28:20;;;;;;;0.55;0.50;;;19.60;53.40;;;;;;4981403;28;20137;-65
2023/12/25 06:30:46;;;;;;;0.30;0.30;;;19.60;53.40;;;;;;4978942;28;20057;-66
2023/12/25 06:33:11;;;;;;;0.50;0.30;;;19.60;53.50;;;;;;4980293;28;20096;-65
2023/12/25 06:35:37;;;;;;;0.93;0.40;;;19.60;53.70;;;;;;4981903;28;20026;-65
2023/12/25 06:38:03;;;;;;;0.90;0.60;;;19.60;54.10;;;;;;4980615;28;20031;-65
2023/12/25 06:40:28;;;;;;;0.68;0.50;;;19.60;54.20;;;;;;4981735;28;20105;-65
2023/12/25 06:42:54;;;;;;;0.50;0.35;;;19.70;54.30;;;;;;4979265;28;20046;-67
2023/12/25 06:45:20;;;;;;;0.80;0.50;;;19.70;54.40;;;;;;4979595;28;20096;-66
2023/12/25 06:47:46;;;;;;;0.75;0.43;;;19.70;54.40;;;;;;4982336;28;20052;-65
2023/12/25 06:50:12;;;;;;;0.65;0.30;;;19.80;54.50;;;;;;4995195;28;20430;-66
2023/12/25 06:52:40;;;;;;;0.90;0.40;;;19.80;54.50;;;;;;4980216;28;20030;-66
2023/12/25 06:55:06;;;;;;;0.65;0.50;;;19.80;54.50;;;;;;4977352;28;20018;-65
2023/12/25 06:57:32;;;;;;;0.70;0.50;;;19.90;54.60;;;;;;4980206;28;20579;-65
2023/12/25 06:59:57;;;;;;;1.90;0.60;;;19.90;54.70;;;;;;4981136;28;20084;-65
2023/12/25 07:02:23;;;;;;;1.35;0.40;;;19.90;54.70;;;;;;4978382;28;20089;-66
2023/12/25 07:04:49;;;;;;;1.05;0.50;;;20.00;54.80;;;;;;4981745;28;20027;-66
2023/12/25 07:07:14;;;;;;;1.55;0.50;;;20.00;54.70;;;;;;4978760;28;20479;-65
2023/12/25 07:09:42;;;;;;;0.50;0.40;;;20.00;54.70;;;;;;4979924;28;20525;-66
2023/12/25 07:12:08;;;;;;;1.90;0.63;;;20.00;54.70;;;;;;4979552;28;20503;-65
2023/12/25 07:14:33;;;;;;;0.60;0.50;;;20.00;54.80;;;;;;4977686;28;20041;-67
2023/12/25 07:17:00;;;;;;;2.33;0.63;;;20.00;54.70;;;;;;4995716;28;20027;-67
2023/12/25 07:19:25;;;;;;;1.50;0.60;;;20.00;54.80;;;;;;4979722;28;20328;-66
2023/12/25 07:21:51;;;;;;;2.17;0.70;;;20.00;54.90;;;;;;4979771;28;20031;-66
2023/12/25 07:24:16;;;;;;;0.50;0.40;;;20.00;55.00;;;;;;4978654;28;20649;-66
2023/12/25 07:26:42;;;;;;;1.85;0.70;;;20.00;55.00;;;;;;4981064;28;20073;-66
2023/12/25 07:29:08;;;;;;;1.25;0.50;;;20.00;55.00;;;;;;4976255;28;20073;-66
2023/12/25 07:31:34;;;;;;;1.30;0.57;;;20.00;55.00;;;;;;4982525;28;20126;-67
2023/12/25 07:34:00;;;;;;;1.45;0.60;;;20.00;55.00;;;;;;4976275;28;20037;-66
2023/12/25 07:36:26;;;;;;;1.88;0.60;;;20.00;54.90;;;;;;4979594;28;20022;-66
2023/12/25 07:38:51;;;;;;;1.70;0.70;;;20.00;55.00;;;;;;4979365;28;20105;-66
2023/12/25 07:41:17;;;;;;;1.80;0.70;;;20.00;55.00;;;;;;4978883;28;20487;-66
2023/12/25 07:43:43;;;;;;;1.73;0.70;;;19.90;54.80;;;;;;4980329;28;20019;-66
2023/12/25 07:46:08;;;;;;;1.02;0.57;;;20.00;54.90;;;;;;4978809;28;20371;-66
2023/12/25 07:48:35;;;;;;;1.73;0.70;;;20.00;54.90;;;;;;4976303;28;20161;-66
2023/12/25 07:51:01;;;;;;;1.95;0.80;;;20.10;55.00;;;;;;4978937;28;20121;-67
2023/12/25 07:53:27;;;;;;;1.05;0.60;;;20.10;55.00;;;;;;4979980;28;20034;-66
2023/12/25 07:55:52;;;;;;;1.10;0.68;;;20.10;54.90;;;;;;4992589;28;20126;-67
2023/12/25 07:58:18;;;;;;;1.45;0.88;;;20.10;54.90;;;;;;4978026;28;20406;-67
2023/12/25 08:00:43;;;;;;;1.20;0.70;;;20.10;54.90;;;;;;4977858;28;20104;-67
2023/12/25 08:03:12;;;;;;;2.20;0.88;;;20.10;54.90;;;;;;4977738;28;20026;-67
2023/12/25 08:05:38;;;;;;;2.00;0.70;;;20.10;54.80;;;;;;4979411;28;20116;-66
2023/12/25 08:08:05;;;;;;;1.90;0.80;;;20.10;54.90;;;;;;4979870;28;20058;-67
2023/12/25 08:10:31;;;;;;;2.60;0.70;;;20.10;54.90;;;;;;4979046;28;20117;-66
2023/12/25 08:12:58;;;;;;;1.25;0.70;;;20.10;54.90;;;;;;4979829;28;20435;-66
2023/12/25 08:15:25;;;;;;;1.98;0.90;;;20.10;55.00;;;;;;4979212;28;20034;-66
2023/12/25 08:17:51;;;;;;;1.80;0.60;;;20.10;55.00;;;;;;4981216;28;20030;-67
2023/12/25 08:20:17;;;;;;;1.20;0.60;;;20.10;55.00;;;;;;4977634;28;20033;-67
2023/12/25 08:22:42;;;;;;;2.00;0.70;;;20.10;55.00;;;;;;4980329;28;20089;-67
2023/12/25 08:25:08;;;;;;;0.88;0.60;;;20.10;55.00;;;;;;4979357;28;20479;-67
2023/12/25 08:27:34;;;;;;;1.73;0.65;;;20.10;55.00;;;;;;4977129;28;20035;-69
2023/12/25 08:30:00;;;;;;;2.50;0.70;;;20.10;55.00;;;;;;4977201;28;20027;-69
2023/12/25 08:32:26;;;;;;;2.67;0.90;;;20.00;55.00;;;;;;4978344;28;20505;-69
2023/12/25 08:34:52;;;;;;;1.10;0.65;;;20.10;55.00;;;;;;4979504;28;20038;-69
2023/12/25 08:37:18;;;;;;;1.50;0.75;;;20.00;55.00;;;;;;4980606;28;20435;-67
2023/12/25 08:39:44;;;;;;;1.52;0.80;;;20.10;55.10;;;;;;4978845;28;20596;-65
2023/12/25 08:42:09;;;;;;;1.35;0.70;;;20.10;55.10;;;;;;4981459;28;20019;-66
2023/12/25 08:44:35;;;;;;;1.20;0.70;;;20.00;55.00;;;;;;4983069;28;20557;-66
2023/12/25 08:47:00;;;;;;;1.95;0.73;;;20.00;55.10;;;;;;4981387;28;20030;-66
2023/12/25 08:49:26;;;;;;;1.75;0.70;;;20.10;55.10;;;;;;4980557;28;20026;-65
2023/12/25 08:51:52;;;;;;;1.27;0.60;;;20.10;55.10;;;;;;4984390;28;20064;-66
2023/12/25 08:54:17;;;;;;;1.55;0.70;;;20.00;55.10;;;;;;4980954;28;20026;-65
2023/12/25 08:56:43;;;;;;;1.25;0.73;;;20.00;55.10;;;;;;4981865;28;20093;-65
2023/12/25 08:59:09;;;;;;;1.75;0.75;;;20.00;55.10;;;;;;4983836;28;20035;-65
2023/12/25 09:01:35;;;;;;;1.25;0.70;;;20.10;55.20;;;;;;4982171;28;20608;-65
2023/12/25 09:04:01;;;;;;;1.30;0.70;;;20.10;55.20;;;;;;4999913;28;20034;-65
2023/12/25 09:06:26;;;;;;;1.13;0.63;;;20.10;55.20;;;;;;4981077;28;20031;-66
2023/12/25 09:08:52;;;;;;;2.00;0.70;;;20.00;55.10;;;;;;4982169;28;20109;-66
2023/12/25 09:11:18;;;;;;;1.10;0.60;;;20.00;55.20;;;;;;4980547;28;20041;-66
2023/12/25 09:13:44;;;;;;;2.10;0.70;;;20.10;55.40;;;;;;4982980;28;20406;-66
2023/12/25 09:16:10;;;;;;;1.23;0.70;;;20.10;55.40;;;;;;4980786;28;20471;-66
2023/12/25 09:18:36;;;;;;;1.10;0.65;;;20.10;55.40;;;;;;4982841;28;20125;-66
2023/12/25 09:21:02;;;;;;;2.38;0.98;;;20.10;55.50;;;;;;4982551;28;20519;-66
2023/12/25 09:23:28;;;;;;;1.52;0.70;;;20.10;55.50;;;;;;4981891;28;20022;-66
2023/12/25 09:25:54;;;;;;;1.17;0.80;;;20.10;55.50;;;;;;4982847;28;20038;-66
2023/12/25 09:28:20;;;;;;;1.40;0.60;;;20.10;55.60;;;;;;4981296;28;20570;-64
2023/12/25 09:30:46;;;;;;;2.70;1.15;;;20.10;55.60;;;;;;4980838;28;20030;-65
2023/12/25 09:33:11;;;;;;;3.08;0.70;;;20.10;55.60;;;;;;4980377;28;20039;-67
2023/12/25 09:35:37;;;;;;;1.80;0.77;;;20.10;55.60;;;;;;4982842;28;20031;-66
2023/12/25 09:38:02;;;;;;;2.13;0.70;;;20.10;55.60;;;;;;4984347;28;20036;-67
2023/12/25 09:40:30;;;;;;;2.58;0.90;;;20.10;55.50;;;;;;4981002;28;20030;-66
2023/12/25 09:43:01;;;;;;;1.70;0.80;;;20.10;55.60;;;;;;4980074;28;20026;-66
2023/12/25 09:45:32;;;;;;;2.15;0.80;;;20.10;55.60;;;;;;4981493;28;20529;-66
2023/12/25 09:47:57;;;;;;;1.67;0.80;;;20.10;55.60;;;;;;4981627;28;20391;-69
2023/12/25 09:50:23;;;;;;;2.20;0.98;;;20.10;55.50;;;;;;4980043;28;20030;-68
2023/12/25 09:52:49;;;;;;;1.77;0.80;;;20.10;55.40;;;;;;4981398;28;20121;-69
2023/12/25 09:55:14;;;;;;;1.67;0.80;;;20.10;55.30;;;;;;4979621;28;20478;-68
2023/12/25 09:57:42;;;;;;;1.75;1.00;;;20.10;55.20;;;;;;4979416;28;20065;-69
2023/12/25 10:00:09;;;;;;;2.70;1.05;;;20.10;55.30;;;;;;4993831;28;20072;-68
2023/12/25 10:02:44;;;;;;;2.40;1.08;;;20.00;55.20;;;;;;4981107;28;20027;-68
2023/12/25 10:05:10;;;;;;;2.15;0.88;;;20.00;55.20;;;;;;4979816;28;20023;-68
2023/12/25 10:07:36;;;;;;;1.73;0.80;;;20.00;55.20;;;;;;4983109;28;20390;-68
2023/12/25 10:10:02;;;;;;;1.88;0.90;;;20.00;55.20;;;;;;4994980;28;20038;-68
2023/12/25 10:12:28;;;;;;;2.08;0.80;;;20.00;55.10;;;;;;4981406;28;20042;-68
2023/12/25 10:14:53;;;;;;;4.13;1.30;;;20.00;55.10;;;;;;4981148;28;20043;-67
2023/12/25 10:17:19;;;;;;;3.33;1.10;;;20.00;55.10;;;;;;4979564;28;20062;-68
2023/12/25 10:19:55;;;;;;;3.53;1.08;;;20.00;55.10;;;;;;4979832;28;20487;-68
2023/12/25 10:22:32;;;;;;;2.75;1.50;;;20.00;55.10;;;;;;4983894;28;20501;-68
2023/12/25 10:25:16;;;;;;;3.08;1.20;;;20.00;55.30;;;;;;4979821;28;20566;-68
2023/12/25 10:27:43;;;;;;;5.63;1.75;;;20.00;55.30;;;;;;4981208;28;20049;-68
2023/12/25 10:30:17;;;;;;;5.90;1.90;;;20.00;55.30;;;;;;4981399;28;20587;-68
2023/12/25 10:32:43;;;;;;;4.15;1.50;;;20.00;55.60;;;;;;4979173;28;20554;-68
2023/12/25 10:35:13;;;;;;;4.10;1.55;;;20.00;56.20;;;;;;4979472;28;20026;-68
2023/12/25 10:37:40;;;;;;;4.07;1.45;;;20.10;56.60;;;;;;4981301;28;20074;-68
2023/12/25 10:40:18;;;;;;;4.43;1.60;;;20.10;56.90;;;;;;4982406;28;20360;-68
2023/12/25 10:42:47;;;;;;;3.15;1.60;;;20.10;56.80;;;;;;4978917;28;20037;-68
2023/12/25 10:45:18;;;;;;;3.28;1.40;;;20.10;56.40;;;;;;4980657;28;20038;-68
2023/12/25 10:47:45;;;;;;;4.13;1.58;;;20.10;56.20;;;;;;4980156;28;20036;-66
2023/12/25 10:50:11;;;;;;;3.50;2.00;;;20.10;56.00;;;;;;4996319;28;20037;-66
2023/12/25 10:52:38;;;;;;;4.43;1.95;;;20.10;55.90;;;;;;4980726;28;20480;-66
2023/12/25 10:55:04;;;;;;;5.20;1.55;;;20.10;55.90;;;;;;4993408;28;20035;-65
2023/12/25 10:57:31;;;;;;;7.00;2.03;;;20.10;55.80;;;;;;4978795;28;20027;-65
2023/12/25 10:59:58;;;;;;;4.47;1.70;;;20.10;55.80;;;;;;4980785;28;20534;-66
2023/12/25 11:02:24;;;;;;;4.63;1.80;;;20.10;55.80;;;;;;4980985;28;20114;-65
2023/12/25 11:04:50;;;;;;;4.50;1.90;;;20.10;55.70;;;;;;4979133;28;20034;-65
2023/12/25 11:07:17;;;;;;;4.40;1.80;;;20.10;55.70;;;;;;4979245;28;20022;-66
2023/12/25 11:09:43;;;;;;;3.35;1.58;;;20.10;55.60;;;;;;4979959;28;20034;-65
2023/12/25 11:12:10;;;;;;;5.15;1.80;;;20.10;55.60;;;;;;4979710;28;20336;-66
2023/12/25 11:14:37;;;;;;;3.75;1.83;;;20.10;55.60;;;;;;4979366;28;20462;-65
2023/12/25 11:17:03;;;;;;;5.03;2.00;;;20.10;55.60;;;;;;4980008;28;20479;-66
2023/12/25 11:19:29;;;;;;;3.92;1.90;;;20.10;55.50;;;;;;4979482;28;20070;-66
2023/12/25 11:21:55;;;;;;;4.60;1.90;;;20.10;55.50;;;;;;4977562;28;20479;-65
2023/12/25 11:24:27;;;;;;;4.22;1.80;;;20.10;55.50;;;;;;4980235;28;20085;-65
2023/12/25 11:27:02;;;;;;;5.53;2.00;;;20.10;55.50;;;;;;4979253;28;20427;-67
2023/12/25 11:29:30;;;;;;;4.70;1.65;;;20.10;55.40;;;;;;4977520;28;20031;-66
2023/12/25 11:31:55;;;;;;;5.65;1.95;;;20.10;55.40;;;;;;4978119;28;20038;-66
2023/12/25 11:34:30;;;;;;;6.03;1.92;;;20.10;55.40;;;;;;4978389;28;20034;-67
2023/12/25 11:36:59;;;;;;;2.90;1.52;;;20.10;55.30;;;;;;4979466;28;20015;-66
2023/12/25 11:39:28;;;;;;;4.65;1.80;;;20.10;55.30;;;;;;4979660;28;20077;-66
2023/12/25 11:41:55;;;;;;;5.57;1.90;;;20.10;55.30;;;;;;4976087;28;20499;-65
2023/12/25 11:44:33;;;;;;;5.18;2.00;;;20.10;55.20;;;;;;4977440;28;20042;-65
2023/12/25 11:47:02;;;;;;;4.18;1.90;;;20.10;55.20;;;;;;4977962;28;20486;-66
2023/12/25 11:49:28;;;;;;;4.85;1.92;;;20.10;55.20;;;;;;4977584;28;20117;-66
2023/12/25 11:51:53;;;;;;;4.07;1.90;;;20.10;55.20;;;;;;4981622;28;20037;-66
2023/12/25 11:54:20;;;;;;;4.72;1.70;;;20.10;55.10;;;;;;4979972;28;20022;-65
2023/12/25 11:56:46;;;;;;;5.25;1.90;;;20.10;55.20;;;;;;4978697;28;20454;-66
2023/12/25 11:59:12;;;;;;;4.65;2.10;;;20.10;55.20;;;;;;4977555;28;20043;-66
2023/12/25 12:01:39;;;;;;;4.47;1.90;;;20.10;55.10;;;;;;4977211;28;20027;-66
2023/12/25 12:04:05;;;;;;;4.75;1.90;;;20.10;55.10;;;;;;4980215;28;20030;-66
2023/12/25 12:06:31;;;;;;;4.20;1.90;;;20.10;55.10;;;;;;4981094;28;20539;-66
2023/12/25 12:08:57;;;;;;;4.32;1.80;;;20.10;55.10;;;;;;4979486;28;20483;-66
2023/12/25 12:11:24;;;;;;;4.28;2.00;;;20.10;55.00;;;;;;4978058;28;20520;-65
2023/12/25 12:13:50;;;;;;;4.78;2.00;;;20.10;55.00;;;;;;4981518;28;20030;-65
2023/12/25 12:16:16;;;;;;;3.97;1.70;;;20.10;55.00;;;;;;4983052;28;20475;-66
2023/12/25 12:18:41;;;;;;;3.53;1.70;;;20.10;55.00;;;;;;4982952;28;20019;-65
2023/12/25 12:21:07;;;;;;;4.15;1.52;;;20.10;55.10;;;;;;4983023;28;20026;-65
2023/12/25 12:23:33;;;;;;;3.53;1.40;;;20.20;55.10;;;;;;4997466;28;20061;-65
2023/12/25 12:25:59;;;;;;;3.03;1.40;;;20.20;55.00;;;;;;4981355;28;20161;-65
2023/12/25 12:28:26;;;;;;;3.83;1.70;;;20.20;55.00;;;;;;4982670;28;20109;-65
2023/12/25 12:30:52;;;;;;;3.65;1.80;;;20.20;54.90;;;;;;4983772;28;20499;-65
2023/12/25 12:33:18;;;;;;;3.72;1.60;;;20.20;55.00;;;;;;4982610;28;20069;-65
2023/12/25 12:35:48;;;;;;;3.63;1.40;;;20.20;55.10;;;;;;4983582;28;20499;-65
2023/12/25 12:38:14;;;;;;;4.22;1.70;;;20.20;55.20;;;;;;4981942;28;20018;-65
2023/12/25 12:40:40;;;;;;;3.47;1.52;;;20.20;55.20;;;;;;4983191;28;20122;-65
2023/12/25 12:43:06;;;;;;;3.63;1.65;;;20.20;55.20;;;;;;4984416;28;20161;-65